createdAt,value
2023-02-01T00:01:14.916Z,3.63
2023-02-01T00:03:41.985Z,2.67
2023-02-01T00:06:12.916Z,3.72
2023-02-01T00:08:49.046Z,3.88
2023-02-01T00:11:16.283Z,3.83
2023-02-01T00:13:45.830Z,5.47
2023-02-01T00:16:17.803Z,3.80
2023-02-01T00:18:46.225Z,3.70
2023-02-01T00:21:17.227Z,3.85
2023-02-01T00:23:44.582Z,3.17
2023-02-01T00:26:20.528Z,3.97
2023-02-01T00:28:47.556Z,4.28
2023-02-01T00:31:14.407Z,3.15
2023-02-01T00:33:41.413Z,2.83
2023-02-01T00:36:10.663Z,3.38
2023-02-01T00:38:39.025Z,4.28
2023-02-01T00:41:15.491Z,3.88
2023-02-01T00:43:43.561Z,5.13
2023-02-01T00:46:10.959Z,4.32
2023-02-01T00:48:39.130Z,4.55
2023-02-01T00:51:08.706Z,3.05
2023-02-01T00:53:35.951Z,4.18
2023-02-01T00:56:06.535Z,4.88
2023-02-01T00:58:34.763Z,8.35
2023-02-01T01:01:09.494Z,7.40
2023-02-01T01:03:39.096Z,5.78
2023-02-01T01:06:12.398Z,9.20
2023-02-01T01:08:40.688Z,4.45
2023-02-01T01:11:10.338Z,8.43
2023-02-01T01:13:37.607Z,4.97
2023-02-01T01:16:06.612Z,3.10
2023-02-01T01:18:34.889Z,8.55
2023-02-01T01:21:02.311Z,8.18
2023-02-01T01:23:29.331Z,6.63
2023-02-01T01:25:58.939Z,5.00
2023-02-01T01:28:26.375Z,4.10
2023-02-01T01:30:53.397Z,6.10
2023-02-01T01:33:20.658Z,3.30
2023-02-01T01:35:48.092Z,7.40
2023-02-01T01:38:14.975Z,6.55
2023-02-01T01:40:46.938Z,6.95
2023-02-01T01:43:17.760Z,3.80
2023-02-01T01:48:41.458Z,6.40
2023-02-01T01:51:15.396Z,3.67
2023-02-01T01:53:54.557Z,4.63
2023-02-01T01:56:21.699Z,3.58
2023-02-01T01:58:48.678Z,4.82
2023-02-01T02:01:16.215Z,3.22
2023-02-01T02:03:45.598Z,4.05
2023-02-01T02:06:34.603Z,3.38
2023-02-01T02:09:01.755Z,5.00
2023-02-01T02:11:28.646Z,2.55
2023-02-01T02:13:57.107Z,4.75
2023-02-01T02:16:33.308Z,3.05
2023-02-01T02:19:18.699Z,3.28
2023-02-01T02:22:19.010Z,2.10
2023-02-01T02:25:04.952Z,4.10
2023-02-01T02:28:00.461Z,3.60
2023-02-01T02:31:04.933Z,3.70
2023-02-01T02:33:48.880Z,5.97
2023-02-01T02:36:35.477Z,5.90
2023-02-01T02:39:09.585Z,3.67
2023-02-01T02:42:09.524Z,3.13
2023-02-01T02:45:17.095Z,2.88
2023-02-01T02:48:18.074Z,3.58
2023-02-01T02:51:06.381Z,5.28
2023-02-01T02:54:18.372Z,7.85
2023-02-01T02:57:06.667Z,4.80
2023-02-01T02:59:54.620Z,4.20
2023-02-01T03:02:41.104Z,4.40
2023-02-01T03:05:10.126Z,4.25
2023-02-01T03:07:46.291Z,5.97
2023-02-01T03:10:42.874Z,4.95
2023-02-01T03:13:18.059Z,7.15
2023-02-01T03:16:02.519Z,5.90
2023-02-01T03:18:40.720Z,10.18
2023-02-01T03:21:17.514Z,9.98
2023-02-01T03:23:47.866Z,7.10
2023-02-01T03:26:19.491Z,3.70
2023-02-01T03:28:57.232Z,3.83
2023-02-01T03:31:25.594Z,5.30
2023-02-01T03:33:52.636Z,13.15
2023-02-01T03:36:31.665Z,3.30
2023-02-01T03:42:30.331Z,3.00
2023-02-01T03:45:11.523Z,4.05
2023-02-01T03:47:44.187Z,3.53
2023-02-01T03:50:14.050Z,4.15
2023-02-01T03:52:45.652Z,4.47
2023-02-01T03:55:14.726Z,4.85
2023-02-01T03:57:47.375Z,3.33
2023-02-01T04:00:19.093Z,3.92
2023-02-01T04:02:47.982Z,5.75
2023-02-01T04:05:19.763Z,9.55
2023-02-01T04:07:49.994Z,4.90
2023-02-01T04:10:26.509Z,4.72
2023-02-01T04:12:55.697Z,3.80
2023-02-01T04:15:24.228Z,3.83
2023-02-01T04:17:51.118Z,5.45
2023-02-01T04:20:18.334Z,6.82
2023-02-01T04:22:45.541Z,5.00
2023-02-01T04:25:12.301Z,4.15
2023-02-01T04:30:10.932Z,10.10
2023-02-01T04:32:38.593Z,8.52
2023-02-01T04:35:06.255Z,6.38
2023-02-01T04:37:33.216Z,5.72
2023-02-01T04:40:00.144Z,7.88
2023-02-01T04:42:27.207Z,6.82
2023-02-01T04:44:54.141Z,7.43
2023-02-01T04:47:21.009Z,7.18
2023-02-01T04:49:47.909Z,6.07
2023-02-01T04:52:16.256Z,10.98
2023-02-01T04:54:43.201Z,8.68
2023-02-01T04:57:10.073Z,5.80
2023-02-01T04:59:37.000Z,5.78
2023-02-01T05:02:03.825Z,7.00
2023-02-01T05:04:30.801Z,8.13
2023-02-01T05:06:57.688Z,8.05
2023-02-01T05:09:24.459Z,13.93
2023-02-01T05:12:10.356Z,10.07
2023-02-01T05:14:37.396Z,11.25
2023-02-01T05:17:07.607Z,5.00
2023-02-01T05:19:34.977Z,3.17
2023-02-01T05:22:15.937Z,5.43
2023-02-01T05:24:42.931Z,5.93
2023-02-01T05:27:09.649Z,5.30
2023-02-01T05:29:36.724Z,2.53
2023-02-01T05:32:20.854Z,6.53
2023-02-01T05:34:48.700Z,6.00
2023-02-01T05:37:15.677Z,6.57
2023-02-01T05:39:42.760Z,8.40
2023-02-01T05:42:09.818Z,4.97
2023-02-01T05:44:37.067Z,6.05
2023-02-01T05:47:04.809Z,3.88
2023-02-01T05:49:31.614Z,6.07
2023-02-01T05:52:00.364Z,4.65
2023-02-01T05:54:27.585Z,4.90
2023-02-01T05:56:56.014Z,2.63
2023-02-01T05:59:23.624Z,6.90
2023-02-01T06:01:50.432Z,11.05
2023-02-01T06:04:17.338Z,9.23
2023-02-01T06:06:44.408Z,5.90
2023-02-01T06:09:11.227Z,12.25
2023-02-01T06:11:38.056Z,12.07
2023-02-01T06:14:05.015Z,5.57
2023-02-01T06:16:32.802Z,9.50
2023-02-01T06:18:59.581Z,6.15
2023-02-01T06:21:26.661Z,4.00
2023-02-01T06:23:58.681Z,7.28
2023-02-01T06:26:26.218Z,7.13
2023-02-01T06:28:53.984Z,6.45
2023-02-01T06:31:22.662Z,8.73
2023-02-01T06:33:50.035Z,7.38
2023-02-01T06:36:17.390Z,6.72
2023-02-01T06:38:44.892Z,9.68
2023-02-01T06:41:12.291Z,7.05
2023-02-01T06:43:44.309Z,12.85
2023-02-01T06:46:13.671Z,8.80
2023-02-01T06:48:41.606Z,10.90
2023-02-01T06:51:21.054Z,12.98
2023-02-01T06:53:48.261Z,6.15
2023-02-01T06:56:14.992Z,10.88
2023-02-01T06:58:41.915Z,10.52
2023-02-01T07:01:10.557Z,11.00
2023-02-01T07:03:37.753Z,9.73
2023-02-01T07:06:05.637Z,17.17
2023-02-01T07:08:34.853Z,11.77
2023-02-01T07:11:06.390Z,7.47
2023-02-01T07:13:33.709Z,10.98
2023-02-01T07:16:06.211Z,8.38
2023-02-01T07:18:33.619Z,10.57
2023-02-01T07:21:00.683Z,11.35
2023-02-01T07:23:28.311Z,8.02
2023-02-01T07:25:59.943Z,7.97
2023-02-01T07:28:27.424Z,8.25
2023-02-01T07:30:54.540Z,5.60
2023-02-01T07:33:24.241Z,13.68
2023-02-01T07:35:52.584Z,16.40
2023-02-01T07:38:20.770Z,6.97
2023-02-01T07:40:47.493Z,6.63
2023-02-01T07:43:15.950Z,7.28
2023-02-01T07:45:50.314Z,12.52
2023-02-01T07:48:17.319Z,3.88
2023-02-01T07:50:44.153Z,4.03
2023-02-01T07:53:11.075Z,5.40
2023-02-01T07:55:49.589Z,5.97
2023-02-01T07:58:19.673Z,7.63
2023-02-01T08:01:08.606Z,3.83
2023-02-01T08:03:36.679Z,6.45
2023-02-01T08:06:03.892Z,9.02
2023-02-01T08:08:30.948Z,8.13
2023-02-01T08:11:06.714Z,10.38
2023-02-01T08:13:36.435Z,6.03
2023-02-01T08:16:06.342Z,11.00
2023-02-01T08:18:33.839Z,7.15
2023-02-01T08:21:05.957Z,15.05
2023-02-01T08:23:33.459Z,12.52
2023-02-01T08:26:18.032Z,17.35
2023-02-01T08:28:54.405Z,6.25
2023-02-01T08:31:24.123Z,9.48
2023-02-01T08:33:57.727Z,9.27
2023-02-01T08:36:26.847Z,9.40
2023-02-01T08:38:54.024Z,10.57
2023-02-01T08:41:25.302Z,11.30
2023-02-01T08:43:53.114Z,13.05
2023-02-01T08:46:20.243Z,12.82
2023-02-01T08:49:47.720Z,9.02
2023-02-01T08:52:16.296Z,10.50
2023-02-01T08:54:44.846Z,7.78
2023-02-01T08:57:15.388Z,6.80
2023-02-01T08:59:42.360Z,12.30
2023-02-01T09:02:14.607Z,18.77
2023-02-01T09:04:42.365Z,15.60
2023-02-01T09:07:14.409Z,14.05
2023-02-01T09:09:41.328Z,17.38
2023-02-01T09:12:08.378Z,14.00
2023-02-01T09:14:35.414Z,15.80
2023-02-01T09:17:02.818Z,10.30
2023-02-01T09:19:29.650Z,28.38
2023-02-01T09:21:56.653Z,24.02
2023-02-01T09:24:23.803Z,26.73
2023-02-01T09:26:53.758Z,22.55
2023-02-01T09:29:21.057Z,15.25
2023-02-01T09:32:01.481Z,17.17
2023-02-01T09:34:42.159Z,23.40
2023-02-01T09:37:10.474Z,6.90
2023-02-01T09:39:38.664Z,30.38
2023-02-01T09:42:23.938Z,29.33
2023-02-01T09:45:06.050Z,14.18
2023-02-01T09:47:37.799Z,25.00
2023-02-01T09:53:30.754Z,15.65
2023-02-01T09:56:07.702Z,9.98
2023-02-01T09:58:34.832Z,4.40
2023-02-01T10:01:05.271Z,6.05
2023-02-01T10:03:37.125Z,9.73
2023-02-01T10:06:29.465Z,8.00
2023-02-01T10:09:16.154Z,4.07
2023-02-01T10:12:01.573Z,4.30
2023-02-01T10:18:01.656Z,4.30
2023-02-01T10:20:41.422Z,5.95
2023-02-01T10:23:32.914Z,7.95
2023-02-01T10:26:17.713Z,5.45
2023-02-01T10:28:49.648Z,8.15
2023-02-01T10:31:18.958Z,7.20
2023-02-01T10:34:00.726Z,3.15
2023-02-01T10:36:37.097Z,4.40
2023-02-01T10:39:07.764Z,6.93
2023-02-01T10:41:37.810Z,3.72
2023-02-01T10:44:10.994Z,5.28
2023-02-01T10:46:38.023Z,4.05
2023-02-01T10:49:14.423Z,3.88
2023-02-01T10:51:47.297Z,4.55
2023-02-01T10:54:23.515Z,5.90
2023-02-01T10:56:53.667Z,11.80
2023-02-01T10:59:25.790Z,3.42
2023-02-01T11:02:09.997Z,3.70
2023-02-01T11:04:46.192Z,11.00
2023-02-01T11:07:31.367Z,13.40
2023-02-01T11:09:59.645Z,12.80
2023-02-01T11:12:34.278Z,6.65
2023-02-01T11:15:26.262Z,6.88
2023-02-01T11:17:58.352Z,4.18
2023-02-01T11:20:41.770Z,3.67
2023-02-01T11:23:30.512Z,9.13
2023-02-01T11:26:00.310Z,5.75
2023-02-01T11:28:32.336Z,3.75
2023-02-01T11:31:05.663Z,3.17
2023-02-01T11:33:37.101Z,6.18
2023-02-01T11:36:38.125Z,5.13
2023-02-01T11:39:19.455Z,4.40
2023-02-01T11:42:12.611Z,4.38
2023-02-01T11:44:42.336Z,2.33
2023-02-01T11:47:49.256Z,1.58
2023-02-01T11:50:19.807Z,3.53
2023-02-01T11:53:11.133Z,3.05
2023-02-01T11:55:50.447Z,4.43
2023-02-01T11:58:24.335Z,3.25
2023-02-01T12:01:21.520Z,3.22
2023-02-01T12:04:08.974Z,7.40
2023-02-01T12:06:50.903Z,8.50
2023-02-01T12:09:17.889Z,4.05
2023-02-01T12:12:23.313Z,7.85
2023-02-01T12:14:59.170Z,7.85
2023-02-01T12:20:41.233Z,5.28
2023-02-01T12:23:25.433Z,4.25
2023-02-01T12:26:11.121Z,4.80
2023-02-01T12:28:47.801Z,5.82
2023-02-01T12:31:41.295Z,7.80
2023-02-01T12:34:32.737Z,5.43
2023-02-01T12:37:18.084Z,2.63
2023-02-01T12:40:11.504Z,16.55
2023-02-01T12:43:26.612Z,8.93
2023-02-01T12:46:05.189Z,9.65
2023-02-01T12:48:38.721Z,8.38
2023-02-01T12:51:20.756Z,7.55
2023-02-01T12:54:16.129Z,13.25
2023-02-01T12:56:51.649Z,12.30
2023-02-01T13:00:11.220Z,5.25
2023-02-01T13:02:48.902Z,5.00
2023-02-01T13:05:26.412Z,5.78
2023-02-01T13:08:06.232Z,6.53
2023-02-01T13:10:49.743Z,5.60
2023-02-01T13:13:50.940Z,5.10
2023-02-01T13:16:28.423Z,1.50
2023-02-01T13:19:03.372Z,4.18
2023-02-01T13:21:36.634Z,5.97
2023-02-01T13:24:04.847Z,6.25
2023-02-01T13:26:34.517Z,4.68
2023-02-01T13:29:07.986Z,2.10
2023-02-01T13:31:54.254Z,4.15
2023-02-01T13:34:54.355Z,5.93
2023-02-01T13:37:50.056Z,3.42
2023-02-01T13:40:20.315Z,5.85
2023-02-01T13:42:52.805Z,4.05
2023-02-01T13:45:24.655Z,7.70
2023-02-01T13:47:55.593Z,4.85
2023-02-01T13:50:35.469Z,5.78
2023-02-01T13:53:12.801Z,7.75
2023-02-01T13:55:42.967Z,4.63
2023-02-01T13:58:09.811Z,4.47
2023-02-01T14:00:41.584Z,5.18
2023-02-01T14:03:20.724Z,6.22
2023-02-01T14:05:57.900Z,3.05
2023-02-01T14:08:39.243Z,7.35
2023-02-01T14:11:06.523Z,6.13
2023-02-01T14:13:33.555Z,4.03
2023-02-01T14:16:06.961Z,9.52
2023-02-01T14:18:42.150Z,11.45
2023-02-01T14:21:30.838Z,5.50
2023-02-01T14:23:57.692Z,5.70
2023-02-01T14:26:46.623Z,7.32
2023-02-01T14:29:20.872Z,6.47
2023-02-01T14:32:03.985Z,2.85
2023-02-01T14:34:37.089Z,6.70
2023-02-01T14:37:08.157Z,6.55
2023-02-01T14:40:01.481Z,9.93
2023-02-01T14:42:31.347Z,6.05
2023-02-01T14:45:24.284Z,10.13
2023-02-01T14:48:06.715Z,15.07
2023-02-01T14:50:33.969Z,10.68
2023-02-01T14:53:14.788Z,13.00
2023-02-01T14:55:41.761Z,11.75
2023-02-01T14:58:20.783Z,8.95
2023-02-01T15:00:59.846Z,11.52
2023-02-01T15:07:25.474Z,8.80
2023-02-01T15:09:55.932Z,8.07
2023-02-01T15:12:31.719Z,12.48
2023-02-01T15:15:17.247Z,14.55
2023-02-01T15:18:01.305Z,12.95
2023-02-01T15:20:31.324Z,12.25
2023-02-01T15:23:02.827Z,21.83
2023-02-01T15:25:32.835Z,20.48
2023-02-01T15:27:59.753Z,20.45
2023-02-01T15:30:30.972Z,16.48
2023-02-01T15:33:10.001Z,13.30
2023-02-01T15:36:35.218Z,22.98
2023-02-01T15:39:46.867Z,31.75
2023-02-01T15:42:20.419Z,43.08
2023-02-01T15:44:54.988Z,40.15
2023-02-01T15:47:28.007Z,70.88
2023-02-01T15:50:10.304Z,66.70
2023-02-01T15:55:52.473Z,18.55
2023-02-01T15:58:27.159Z,23.92
2023-02-01T16:00:57.102Z,22.45
2023-02-01T16:03:42.319Z,30.80
2023-02-01T16:06:32.622Z,18.02
2023-02-01T16:08:59.382Z,16.10
2023-02-01T16:11:41.709Z,22.23
2023-02-01T16:17:25.607Z,19.17
2023-02-01T16:19:52.918Z,20.90
2023-02-01T16:22:20.049Z,20.23
2023-02-01T16:24:47.219Z,20.60
2023-02-01T16:27:14.480Z,14.80
2023-02-01T16:29:42.903Z,21.27
2023-02-01T16:32:19.532Z,14.60
2023-02-01T16:34:48.125Z,13.48
2023-02-01T16:37:20.529Z,14.70
2023-02-01T16:39:47.653Z,16.80
2023-02-01T16:42:16.309Z,14.70
2023-02-01T16:44:43.477Z,13.82
2023-02-01T16:47:17.987Z,12.68
2023-02-01T16:49:48.643Z,20.30
2023-02-01T16:52:22.018Z,16.20
2023-02-01T16:54:49.779Z,13.63
2023-02-01T16:57:18.829Z,12.88
2023-02-01T16:59:50.134Z,11.25
2023-02-01T17:02:21.100Z,16.45
2023-02-01T17:04:49.875Z,12.85
2023-02-01T17:07:18.771Z,14.93
2023-02-01T17:09:46.811Z,10.63
2023-02-01T17:12:25.261Z,10.48
2023-02-01T17:14:52.822Z,7.25
2023-02-01T17:17:32.695Z,8.65
2023-02-01T17:20:04.827Z,5.15
2023-02-01T17:22:31.757Z,10.77
2023-02-01T17:24:58.523Z,12.25
2023-02-01T17:27:32.203Z,11.93
2023-02-01T17:30:10.479Z,12.35
2023-02-01T17:32:37.678Z,4.70
2023-02-01T17:35:04.694Z,7.63
2023-02-01T17:37:38.839Z,10.68
2023-02-01T17:40:06.471Z,7.07
2023-02-01T17:42:34.218Z,6.95
2023-02-01T17:45:27.984Z,7.68
2023-02-01T17:47:54.784Z,7.30
2023-02-01T17:50:21.895Z,7.85
2023-02-01T17:52:48.992Z,8.23
2023-02-01T17:55:23.350Z,8.50
2023-02-01T17:57:51.332Z,10.52
2023-02-01T18:00:19.268Z,6.38
2023-02-01T18:02:46.047Z,18.20
2023-02-01T18:05:16.119Z,9.10
2023-02-01T18:07:42.851Z,5.95
2023-02-01T18:10:11.696Z,12.68
2023-02-01T18:12:39.768Z,12.25
2023-02-01T18:15:26.337Z,16.88
2023-02-01T18:18:02.591Z,18.67
2023-02-01T18:20:29.439Z,20.88
2023-02-01T18:23:05.625Z,14.80
2023-02-01T18:25:38.576Z,13.32
2023-02-01T18:28:05.534Z,11.75
2023-02-01T18:30:34.596Z,10.55
2023-02-01T18:33:02.046Z,9.82
2023-02-01T18:35:33.588Z,8.50
2023-02-01T18:38:01.064Z,11.50
2023-02-01T18:40:40.083Z,10.70
2023-02-01T18:43:07.045Z,13.88
2023-02-01T18:45:45.197Z,8.30
2023-02-01T18:48:17.313Z,6.03
2023-02-01T18:50:46.066Z,10.23
2023-02-01T18:53:17.835Z,6.68
2023-02-01T18:55:44.983Z,8.32
2023-02-01T18:58:14.892Z,8.75
2023-02-01T19:00:42.586Z,10.35
2023-02-01T19:03:12.478Z,8.02
2023-02-01T19:05:39.843Z,8.57
2023-02-01T19:08:06.851Z,8.82
2023-02-01T19:10:34.522Z,5.63
2023-02-01T19:13:01.600Z,4.95
2023-02-01T19:15:28.714Z,6.28
2023-02-01T19:17:55.822Z,5.25
2023-02-01T19:20:25.993Z,21.58
2023-02-01T19:22:54.118Z,30.83
2023-02-01T19:25:24.943Z,29.38
2023-02-01T19:27:53.128Z,27.40
2023-02-01T19:30:21.713Z,25.75
2023-02-01T19:32:50.929Z,33.28
2023-02-01T19:35:19.840Z,35.67
2023-02-01T19:37:48.581Z,39.00
2023-02-01T19:40:19.848Z,36.65
2023-02-01T19:42:47.932Z,43.83
2023-02-01T19:45:15.660Z,31.80
2023-02-01T19:47:42.872Z,36.50
2023-02-01T19:50:15.811Z,32.92
2023-02-01T19:52:42.513Z,27.40
2023-02-01T19:55:09.671Z,15.70
2023-02-01T19:57:37.756Z,17.88
2023-02-01T20:00:08.478Z,8.55
2023-02-01T20:02:34.665Z,9.02
2023-02-01T20:05:01.928Z,9.55
2023-02-01T20:07:29.111Z,14.73
2023-02-01T20:09:56.101Z,13.80
2023-02-01T20:12:27.880Z,16.05
2023-02-01T20:14:55.843Z,21.02
2023-02-01T20:17:23.197Z,11.20
2023-02-01T20:19:50.389Z,15.60
2023-02-01T20:22:17.535Z,13.48
2023-02-01T20:24:44.567Z,11.60
2023-02-01T20:27:21.231Z,15.98
2023-02-01T20:29:52.213Z,17.30
2023-02-01T20:32:25.331Z,17.63
2023-02-01T20:34:53.969Z,11.88
2023-02-01T20:37:21.557Z,16.30
2023-02-01T20:39:48.600Z,11.07
2023-02-01T20:42:16.237Z,10.05
2023-02-01T20:44:44.321Z,10.15
2023-02-01T20:47:11.470Z,14.05
2023-02-01T20:49:40.565Z,9.55
2023-02-01T20:52:09.037Z,7.93
2023-02-01T20:54:36.391Z,8.55
2023-02-01T20:57:12.428Z,13.30
2023-02-01T21:02:32.458Z,29.38
2023-02-01T21:05:14.524Z,32.95
2023-02-01T21:07:41.705Z,20.45
2023-02-01T21:10:11.237Z,15.20
2023-02-01T21:12:38.787Z,11.95
2023-02-01T21:15:09.713Z,16.17
2023-02-01T21:17:39.715Z,10.05
2023-02-01T21:20:08.606Z,10.45
2023-02-01T21:22:35.704Z,9.80
2023-02-01T21:25:02.995Z,11.23
2023-02-01T21:27:29.909Z,10.23
2023-02-01T21:30:02.743Z,14.00
2023-02-01T21:32:30.153Z,15.93
2023-02-01T21:34:59.962Z,14.45
2023-02-01T21:37:27.309Z,19.58
2023-02-01T21:39:54.398Z,17.10
2023-02-01T21:42:22.180Z,19.30
2023-02-01T21:44:51.366Z,24.45
2023-02-01T21:47:21.297Z,19.95
2023-02-01T21:49:58.672Z,30.63
2023-02-01T21:52:26.714Z,27.60
2023-02-01T21:54:59.829Z,26.67
2023-02-01T21:57:29.329Z,28.13
2023-02-01T21:59:56.626Z,22.95
2023-02-01T22:02:25.128Z,23.90
2023-02-01T22:05:00.452Z,29.58
2023-02-01T22:07:27.703Z,32.85
2023-02-01T22:10:04.721Z,30.52
2023-02-01T22:12:31.723Z,34.13
2023-02-01T22:14:58.670Z,39.45
2023-02-01T22:17:25.834Z,27.17
2023-02-01T22:19:53.363Z,31.38
2023-02-01T22:22:20.191Z,28.50
2023-02-01T22:24:47.055Z,26.25
2023-02-01T22:27:14.740Z,24.60
2023-02-01T22:29:43.013Z,22.90
2023-02-01T22:32:10.044Z,25.20
2023-02-01T22:34:37.054Z,23.13
2023-02-01T22:37:04.001Z,19.73
2023-02-01T22:39:31.048Z,19.23
2023-02-01T22:41:58.489Z,22.92
2023-02-01T22:44:28.443Z,26.35
2023-02-01T22:46:57.193Z,23.65
2023-02-01T22:49:24.079Z,27.52
2023-02-01T22:51:53.953Z,27.98
2023-02-01T22:54:22.070Z,33.00
2023-02-01T22:56:49.785Z,33.33
2023-02-01T22:59:17.260Z,32.80
2023-02-01T23:01:44.804Z,30.25
2023-02-01T23:04:14.363Z,29.88
2023-02-01T23:06:41.711Z,28.55
2023-02-01T23:09:17.459Z,29.25
2023-02-01T23:11:45.052Z,24.85
2023-02-01T23:14:13.528Z,22.80
2023-02-01T23:16:41.555Z,22.52
2023-02-01T23:19:08.624Z,20.92
2023-02-01T23:21:35.736Z,24.65
2023-02-01T23:24:05.131Z,19.67
2023-02-01T23:26:32.506Z,18.63
2023-02-01T23:29:00.427Z,18.58
2023-02-01T23:31:33.214Z,18.52
2023-02-01T23:34:01.597Z,15.25
2023-02-01T23:36:29.479Z,18.23
2023-02-01T23:38:56.757Z,14.32
2023-02-01T23:41:24.880Z,15.40
2023-02-01T23:43:58.238Z,15.23
2023-02-01T23:46:30.751Z,15.85
2023-02-01T23:48:58.408Z,17.23
2023-02-01T23:51:26.024Z,14.45
2023-02-01T23:53:53.845Z,16.70
2023-02-01T23:56:28.252Z,12.57
2023-02-01T23:58:56.765Z,15.75
